sensor_id;sensor_type;location;lat;lon;timestamp;pressure;altitude;pressure_sealevel;temperature;humidity
42385;BME280;28042;43.986;22.860;2022-07-10T00:01:39;100893.72;;;19.52;73.76
42385;BME280;28042;43.986;22.860;2022-07-10T00:04:04;100886.50;;;19.51;73.73
42385;BME280;28042;43.986;22.860;2022-07-10T00:06:29;100882.81;;;19.45;73.72
42385;BME280;28042;43.986;22.860;2022-07-10T00:08:55;100883.00;;;19.38;73.56
42385;BME280;28042;43.986;22.860;2022-07-10T00:11:20;100887.28;;;19.29;73.85
42385;BME280;28042;43.986;22.860;2022-07-10T00:13:45;100888.84;;;19.25;74.30
42385;BME280;28042;43.986;22.860;2022-07-10T00:16:11;100881.66;;;19.24;74.20
42385;BME280;28042;43.986;22.860;2022-07-10T00:18:36;100884.31;;;19.19;74.80
42385;BME280;28042;43.986;22.860;2022-07-10T00:21:01;100880.97;;;19.17;74.87
42385;BME280;28042;43.986;22.860;2022-07-10T00:23:27;100878.13;;;19.12;74.81
42385;BME280;28042;43.986;22.860;2022-07-10T00:25:52;100875.38;;;19.12;73.46
42385;BME280;28042;43.986;22.860;2022-07-10T00:28:17;100883.66;;;19.12;74.30
42385;BME280;28042;43.986;22.860;2022-07-10T00:30:43;100874.28;;;19.13;74.13
42385;BME280;28042;43.986;22.860;2022-07-10T00:33:08;100872.59;;;19.12;72.91
42385;BME280;28042;43.986;22.860;2022-07-10T00:35:33;100879.13;;;19.06;74.14
42385;BME280;28042;43.986;22.860;2022-07-10T00:37:59;100880.13;;;19.00;74.30
42385;BME280;28042;43.986;22.860;2022-07-10T00:40:24;100881.22;;;18.99;75.45
42385;BME280;28042;43.986;22.860;2022-07-10T00:42:49;100875.16;;;19.02;76.04
42385;BME280;28042;43.986;22.860;2022-07-10T00:45:15;100871.81;;;19.00;76.82
42385;BME280;28042;43.986;22.860;2022-07-10T00:47:40;100866.81;;;18.97;77.57
42385;BME280;28042;43.986;22.860;2022-07-10T00:50:06;100877.28;;;18.95;78.08
42385;BME280;28042;43.986;22.860;2022-07-10T00:52:32;100873.41;;;18.96;78.61
42385;BME280;28042;43.986;22.860;2022-07-10T00:55:00;100873.31;;;18.90;79.24
42385;BME280;28042;43.986;22.860;2022-07-10T00:57:26;100867.72;;;18.85;79.16
42385;BME280;28042;43.986;22.860;2022-07-10T00:59:51;100877.00;;;18.79;79.10
42385;BME280;28042;43.986;22.860;2022-07-10T01:02:17;100874.56;;;18.83;79.38
42385;BME280;28042;43.986;22.860;2022-07-10T01:04:42;100872.03;;;18.81;79.78
42385;BME280;28042;43.986;22.860;2022-07-10T01:07:08;100861.00;;;18.81;80.64
42385;BME280;28042;43.986;22.860;2022-07-10T01:09:33;100869.88;;;18.83;81.24
42385;BME280;28042;43.986;22.860;2022-07-10T01:11:59;100866.00;;;18.84;80.86
42385;BME280;28042;43.986;22.860;2022-07-10T01:14:25;100865.28;;;18.89;80.65
42385;BME280;28042;43.986;22.860;2022-07-10T01:16:51;100864.78;;;18.92;80.44
42385;BME280;28042;43.986;22.860;2022-07-10T01:19:17;100863.84;;;18.86;80.54
42385;BME280;28042;43.986;22.860;2022-07-10T01:21:42;100857.81;;;18.89;80.44
42385;BME280;28042;43.986;22.860;2022-07-10T01:24:08;100860.44;;;18.96;80.47
42385;BME280;28042;43.986;22.860;2022-07-10T01:26:35;100865.72;;;18.98;80.81
42385;BME280;28042;43.986;22.860;2022-07-10T01:29:02;100855.75;;;18.97;80.07
42385;BME280;28042;43.986;22.860;2022-07-10T01:31:28;100865.59;;;18.92;79.41
42385;BME280;28042;43.986;22.860;2022-07-10T01:33:53;100859.59;;;18.96;79.59
42385;BME280;28042;43.986;22.860;2022-07-10T01:36:19;100856.00;;;18.95;79.47
42385;BME280;28042;43.986;22.860;2022-07-10T01:38:45;100860.75;;;19.00;80.08
42385;BME280;28042;43.986;22.860;2022-07-10T01:41:11;100847.28;;;19.03;80.05
42385;BME280;28042;43.986;22.860;2022-07-10T01:43:36;100849.00;;;18.92;80.31
42385;BME280;28042;43.986;22.860;2022-07-10T01:46:02;100846.34;;;18.98;80.89
42385;BME280;28042;43.986;22.860;2022-07-10T01:48:28;100860.19;;;18.98;80.25
42385;BME280;28042;43.986;22.860;2022-07-10T01:50:54;100851.88;;;18.98;80.81
42385;BME280;28042;43.986;22.860;2022-07-10T01:53:19;100850.22;;;18.97;80.72
42385;BME280;28042;43.986;22.860;2022-07-10T01:55:44;100846.25;;;18.92;80.62
42385;BME280;28042;43.986;22.860;2022-07-10T01:58:10;100849.63;;;18.95;80.90
42385;BME280;28042;43.986;22.860;2022-07-10T02:00:35;100860.06;;;18.92;81.60
42385;BME280;28042;43.986;22.860;2022-07-10T02:03:00;100855.63;;;18.91;82.26
42385;BME280;28042;43.986;22.860;2022-07-10T02:05:44;100850.94;;;18.92;81.69
42385;BME280;28042;43.986;22.860;2022-07-10T02:08:09;100851.31;;;18.96;80.89
42385;BME280;28042;43.986;22.860;2022-07-10T02:10:35;100855.81;;;19.02;80.65
42385;BME280;28042;43.986;22.860;2022-07-10T02:13:00;100857.50;;;19.03;80.67
42385;BME280;28042;43.986;22.860;2022-07-10T02:15:25;100846.19;;;19.04;80.22
42385;BME280;28042;43.986;22.860;2022-07-10T02:17:51;100847.03;;;19.05;81.11
42385;BME280;28042;43.986;22.860;2022-07-10T02:20:16;100840.41;;;19.06;81.22
42385;BME280;28042;43.986;22.860;2022-07-10T02:22:41;100847.63;;;19.07;80.99
42385;BME280;28042;43.986;22.860;2022-07-10T02:25:07;100847.28;;;19.03;80.31
42385;BME280;28042;43.986;22.860;2022-07-10T02:27:33;100847.34;;;18.91;79.54
42385;BME280;28042;43.986;22.860;2022-07-10T02:29:58;100843.06;;;18.84;80.07
42385;BME280;28042;43.986;22.860;2022-07-10T02:32:23;100840.53;;;18.82;79.94
42385;BME280;28042;43.986;22.860;2022-07-10T02:34:49;100840.91;;;18.86;80.11
42385;BME280;28042;43.986;22.860;2022-07-10T02:37:14;100840.53;;;18.82;79.45
42385;BME280;28042;43.986;22.860;2022-07-10T02:39:39;100839.38;;;18.78;79.06
42385;BME280;28042;43.986;22.860;2022-07-10T02:42:05;100844.41;;;18.81;79.06
42385;BME280;28042;43.986;22.860;2022-07-10T02:44:30;100838.88;;;18.81;79.95
42385;BME280;28042;43.986;22.860;2022-07-10T02:46:56;100841.38;;;18.83;80.23
42385;BME280;28042;43.986;22.860;2022-07-10T02:49:22;100844.41;;;18.81;80.33
42385;BME280;28042;43.986;22.860;2022-07-10T02:51:47;100841.06;;;18.79;80.00
42385;BME280;28042;43.986;22.860;2022-07-10T02:54:12;100841.19;;;18.73;79.55
42385;BME280;28042;43.986;22.860;2022-07-10T02:56:38;100840.53;;;18.82;80.20
42385;BME280;28042;43.986;22.860;2022-07-10T02:59:04;100844.41;;;18.81;80.21
42385;BME280;28042;43.986;22.860;2022-07-10T03:01:31;100846.06;;;18.82;80.76
42385;BME280;28042;43.986;22.860;2022-07-10T03:03:57;100842.22;;;18.83;80.33
42385;BME280;28042;43.986;22.860;2022-07-10T03:06:22;100841.75;;;18.86;79.83
42385;BME280;28042;43.986;22.860;2022-07-10T03:08:48;100847.28;;;18.86;79.15
42385;BME280;28042;43.986;22.860;2022-07-10T03:11:14;100841.38;;;18.83;80.24
42385;BME280;28042;43.986;22.860;2022-07-10T03:13:39;100846.75;;;18.89;79.51
42385;BME280;28042;43.986;22.860;2022-07-10T03:16:05;100841.41;;;19.00;78.63
42385;BME280;28042;43.986;22.860;2022-07-10T03:18:30;100838.38;;;19.01;78.27
42385;BME280;28042;43.986;22.860;2022-07-10T03:20:55;100848.03;;;18.99;77.07
42385;BME280;28042;43.986;22.860;2022-07-10T03:23:21;100851.78;;;18.92;76.71
42385;BME280;28042;43.986;22.860;2022-07-10T03:25:46;100843.00;;;18.96;77.05
42385;BME280;28042;43.986;22.860;2022-07-10T03:28:11;100846.94;;;19.00;77.91
42385;BME280;28042;43.986;22.860;2022-07-10T03:30:37;100841.56;;;19.10;77.78
42385;BME280;28042;43.986;22.860;2022-07-10T03:33:02;100842.59;;;19.20;78.24
42385;BME280;28042;43.986;22.860;2022-07-10T03:35:28;100839.06;;;19.25;77.50
42385;BME280;28042;43.986;22.860;2022-07-10T03:37:56;100839.16;;;19.30;77.21
42385;BME280;28042;43.986;22.860;2022-07-10T03:40:23;100836.47;;;19.35;77.21
42385;BME280;28042;43.986;22.860;2022-07-10T03:42:49;100838.56;;;19.28;75.64
42385;BME280;28042;43.986;22.860;2022-07-10T03:45:14;100835.56;;;19.30;74.92
42385;BME280;28042;43.986;22.860;2022-07-10T03:47:39;100832.03;;;19.34;75.34
42385;BME280;28042;43.986;22.860;2022-07-10T03:50:05;100838.38;;;19.35;75.14
42385;BME280;28042;43.986;22.860;2022-07-10T03:52:30;100837.50;;;19.29;73.41
42385;BME280;28042;43.986;22.860;2022-07-10T03:54:56;100832.53;;;19.31;73.48
42385;BME280;28042;43.986;22.860;2022-07-10T03:57:21;100837.06;;;19.37;73.76
42385;BME280;28042;43.986;22.860;2022-07-10T04:00:05;100835.53;;;19.46;73.17
42385;BME280;28042;43.986;22.860;2022-07-10T04:02:30;100836.38;;;19.47;73.72
42385;BME280;28042;43.986;22.860;2022-07-10T04:04:56;100841.09;;;19.46;72.96
42385;BME280;28042;43.986;22.860;2022-07-10T04:07:21;100837.72;;;19.44;73.04
42385;BME280;28042;43.986;22.860;2022-07-10T04:09:46;100842.75;;;19.47;72.91
42385;BME280;28042;43.986;22.860;2022-07-10T04:12:12;100841.25;;;19.57;72.66
42385;BME280;28042;43.986;22.860;2022-07-10T04:14:37;100834.38;;;19.59;71.27
42385;BME280;28042;43.986;22.860;2022-07-10T04:17:02;100832.00;;;19.68;70.95
42385;BME280;28042;43.986;22.860;2022-07-10T04:19:28;100830.66;;;19.70;71.13
42385;BME280;28042;43.986;22.860;2022-07-10T04:21:53;100825.59;;;19.84;71.67
42385;BME280;28042;43.986;22.860;2022-07-10T04:24:19;100821.03;;;19.95;71.14
42385;BME280;28042;43.986;22.860;2022-07-10T04:26:44;100824.84;;;20.11;70.29
42385;BME280;28042;43.986;22.860;2022-07-10T04:29:09;100822.91;;;20.33;69.92
42385;BME280;28042;43.986;22.860;2022-07-10T04:31:35;100828.69;;;20.53;68.89
42385;BME280;28042;43.986;22.860;2022-07-10T04:34:00;100821.09;;;20.71;68.17
42385;BME280;28042;43.986;22.860;2022-07-10T04:36:25;100818.78;;;20.89;67.47
42385;BME280;28042;43.986;22.860;2022-07-10T04:38:51;100821.34;;;20.96;66.28
42385;BME280;28042;43.986;22.860;2022-07-10T04:41:16;100820.97;;;21.20;66.53
42385;BME280;28042;43.986;22.860;2022-07-10T04:43:42;100818.06;;;21.31;65.46
42385;BME280;28042;43.986;22.860;2022-07-10T04:46:07;100815.75;;;21.60;64.85
42385;BME280;28042;43.986;22.860;2022-07-10T04:48:32;100823.09;;;21.82;62.77
42385;BME280;28042;43.986;22.860;2022-07-10T04:50:58;100819.06;;;23.03;60.37
42385;BME280;28042;43.986;22.860;2022-07-10T04:53:23;100820.53;;;24.11;56.32
42385;BME280;28042;43.986;22.860;2022-07-10T04:55:48;100817.22;;;25.07;51.27
42385;BME280;28042;43.986;22.860;2022-07-10T04:58:14;100818.81;;;25.77;50.19
42385;BME280;28042;43.986;22.860;2022-07-10T05:00:39;100828.81;;;26.49;47.70
42385;BME280;28042;43.986;22.860;2022-07-10T05:03:04;100829.94;;;26.48;46.91
42385;BME280;28042;43.986;22.860;2022-07-10T05:05:30;100830.06;;;26.62;44.41
42385;BME280;28042;43.986;22.860;2022-07-10T05:07:55;100834.09;;;27.26;44.67
42385;BME280;28042;43.986;22.860;2022-07-10T05:10:20;100828.75;;;27.44;43.31
42385;BME280;28042;43.986;22.860;2022-07-10T05:12:46;100820.78;;;27.51;42.37
42385;BME280;28042;43.986;22.860;2022-07-10T05:15:11;100822.63;;;26.90;41.99
42385;BME280;28042;43.986;22.860;2022-07-10T05:17:37;100817.25;;;26.13;43.86
42385;BME280;28042;43.986;22.860;2022-07-10T05:20:02;100820.88;;;26.38;44.13
42385;BME280;28042;43.986;22.860;2022-07-10T05:22:27;100826.09;;;26.63;43.42
42385;BME280;28042;43.986;22.860;2022-07-10T05:24:55;100823.28;;;27.01;42.85
42385;BME280;28042;43.986;22.860;2022-07-10T05:27:20;100827.00;;;27.15;42.84
42385;BME280;28042;43.986;22.860;2022-07-10T05:29:46;100826.69;;;26.98;41.78
42385;BME280;28042;43.986;22.860;2022-07-10T05:32:12;100814.47;;;26.56;43.08
42385;BME280;28042;43.986;22.860;2022-07-10T05:34:37;100822.25;;;26.78;42.11
42385;BME280;28042;43.986;22.860;2022-07-10T05:37:02;100818.19;;;26.28;43.56
42385;BME280;28042;43.986;22.860;2022-07-10T05:39:28;100819.09;;;26.85;42.50
42385;BME280;28042;43.986;22.860;2022-07-10T05:41:53;100818.81;;;27.19;41.40
42385;BME280;28042;43.986;22.860;2022-07-10T05:44:20;100812.34;;;27.37;40.08
42385;BME280;28042;43.986;22.860;2022-07-10T05:46:46;100809.44;;;27.28;40.89
42385;BME280;28042;43.986;22.860;2022-07-10T05:49:11;100808.47;;;27.79;40.16
42385;BME280;28042;43.986;22.860;2022-07-10T05:51:37;100808.59;;;28.43;39.94
42385;BME280;28042;43.986;22.860;2022-07-10T05:54:02;100798.25;;;28.88;38.60
42385;BME280;28042;43.986;22.860;2022-07-10T05:56:28;100806.38;;;28.40;38.47
42385;BME280;28042;43.986;22.860;2022-07-10T05:58:53;100802.91;;;28.07;38.65
42385;BME280;28042;43.986;22.860;2022-07-10T06:01:20;100805.97;;;28.19;38.37
42385;BME280;28042;43.986;22.860;2022-07-10T06:03:46;100821.97;;;27.77;38.32
42385;BME280;28042;43.986;22.860;2022-07-10T06:06:11;100806.75;;;27.51;39.84
42385;BME280;28042;43.986;22.860;2022-07-10T06:08:40;100809.38;;;27.61;38.59
42385;BME280;28042;43.986;22.860;2022-07-10T06:11:05;100808.44;;;27.66;39.18
42385;BME280;28042;43.986;22.860;2022-07-10T06:13:31;100802.78;;;27.84;39.24
42385;BME280;28042;43.986;22.860;2022-07-10T06:15:56;100803.06;;;27.69;41.12
42385;BME280;28042;43.986;22.860;2022-07-10T06:18:21;100805.47;;;27.29;41.25
42385;BME280;28042;43.986;22.860;2022-07-10T06:20:47;100800.59;;;28.09;41.31
42385;BME280;28042;43.986;22.860;2022-07-10T06:23:12;100801.50;;;27.63;41.44
42385;BME280;28042;43.986;22.860;2022-07-10T06:25:37;100793.69;;;27.46;41.84
42385;BME280;28042;43.986;22.860;2022-07-10T06:28:02;100794.38;;;27.84;41.46
42385;BME280;28042;43.986;22.860;2022-07-10T06:30:28;100792.91;;;27.73;41.08
42385;BME280;28042;43.986;22.860;2022-07-10T06:32:53;100799.66;;;27.72;41.97
42385;BME280;28042;43.986;22.860;2022-07-10T06:35:18;100796.56;;;27.74;41.64
42385;BME280;28042;43.986;22.860;2022-07-10T06:37:44;100792.13;;;27.54;42.13
42385;BME280;28042;43.986;22.860;2022-07-10T06:40:11;100790.81;;;27.79;41.16
42385;BME280;28042;43.986;22.860;2022-07-10T06:42:37;100799.94;;;27.71;41.28
42385;BME280;28042;43.986;22.860;2022-07-10T06:45:03;100794.47;;;27.79;41.22
42385;BME280;28042;43.986;22.860;2022-07-10T06:47:28;100785.88;;;27.90;42.27
42385;BME280;28042;43.986;22.860;2022-07-10T06:50:12;100794.16;;;27.02;42.42
42385;BME280;28042;43.986;22.860;2022-07-10T06:52:37;100799.19;;;26.67;41.47
42385;BME280;28042;43.986;22.860;2022-07-10T06:55:03;100786.91;;;26.26;43.34
42385;BME280;28042;43.986;22.860;2022-07-10T06:57:29;100781.34;;;26.02;44.40
42385;BME280;28042;43.986;22.860;2022-07-10T06:59:54;100788.50;;;25.89;41.94
42385;BME280;28042;43.986;22.860;2022-07-10T07:02:19;100789.31;;;25.60;42.02
42385;BME280;28042;43.986;22.860;2022-07-10T07:04:45;100792.13;;;25.60;42.76
42385;BME280;28042;43.986;22.860;2022-07-10T07:07:11;100786.31;;;25.57;42.43
42385;BME280;28042;43.986;22.860;2022-07-10T07:09:37;100779.09;;;25.51;43.51
42385;BME280;28042;43.986;22.860;2022-07-10T07:12:02;100782.59;;;25.61;43.22
42385;BME280;28042;43.986;22.860;2022-07-10T07:14:28;100781.13;;;25.69;44.98
42385;BME280;28042;43.986;22.860;2022-07-10T07:16:54;100777.19;;;25.99;42.81
42385;BME280;28042;43.986;22.860;2022-07-10T07:19:24;100775.63;;;25.88;44.85
42385;BME280;28042;43.986;22.860;2022-07-10T07:22:10;100780.38;;;25.87;43.61
42385;BME280;28042;43.986;22.860;2022-07-10T07:24:53;100774.44;;;25.94;42.27
42385;BME280;28042;43.986;22.860;2022-07-10T07:27:19;100770.44;;;26.00;44.68
42385;BME280;28042;43.986;22.860;2022-07-10T07:29:44;100773.13;;;25.86;45.80
42385;BME280;28042;43.986;22.860;2022-07-10T07:32:09;100771.66;;;26.13;46.32
42385;BME280;28042;43.986;22.860;2022-07-10T07:34:34;100782.69;;;26.47;45.23
42385;BME280;28042;43.986;22.860;2022-07-10T07:37:00;100791.09;;;26.66;44.27
42385;BME280;28042;43.986;22.860;2022-07-10T07:39:25;100786.00;;;26.87;42.67
42385;BME280;28042;43.986;22.860;2022-07-10T07:41:50;100787.72;;;26.50;43.95
42385;BME280;28042;43.986;22.860;2022-07-10T07:44:16;100779.41;;;25.97;43.49
42385;BME280;28042;43.986;22.860;2022-07-10T07:46:43;100789.44;;;25.50;43.95
42385;BME280;28042;43.986;22.860;2022-07-10T07:49:08;100788.19;;;25.38;45.20
42385;BME280;28042;43.986;22.860;2022-07-10T07:51:33;100782.31;;;25.39;46.14
42385;BME280;28042;43.986;22.860;2022-07-10T07:53:58;100783.31;;;25.48;45.28
42385;BME280;28042;43.986;22.860;2022-07-10T07:56:24;100792.72;;;25.57;44.82
42385;BME280;28042;43.986;22.860;2022-07-10T07:58:49;100798.66;;;25.51;44.60
42385;BME280;28042;43.986;22.860;2022-07-10T08:01:14;100794.69;;;25.28;44.40
42385;BME280;28042;43.986;22.860;2022-07-10T08:03:40;100782.22;;;25.44;44.92
42385;BME280;28042;43.986;22.860;2022-07-10T08:06:05;100785.97;;;25.63;44.49
42385;BME280;28042;43.986;22.860;2022-07-10T08:08:30;100787.00;;;25.73;43.40
42385;BME280;28042;43.986;22.860;2022-07-10T08:10:56;100777.19;;;25.99;44.13
42385;BME280;28042;43.986;22.860;2022-07-10T08:13:21;100776.38;;;26.17;43.26
42385;BME280;28042;43.986;22.860;2022-07-10T08:15:47;100772.44;;;26.37;41.71
42385;BME280;28042;43.986;22.860;2022-07-10T08:18:13;100763.81;;;26.15;40.41
42385;BME280;28042;43.986;22.860;2022-07-10T08:20:39;100769.66;;;26.18;39.72
42385;BME280;28042;43.986;22.860;2022-07-10T08:23:05;100766.84;;;26.37;40.04
42385;BME280;28042;43.986;22.860;2022-07-10T08:25:30;100770.84;;;26.12;40.21
42385;BME280;28042;43.986;22.860;2022-07-10T08:28:01;100771.03;;;26.40;41.07
42385;BME280;28042;43.986;22.860;2022-07-10T08:30:26;100777.09;;;26.47;39.99
42385;BME280;28042;43.986;22.860;2022-07-10T08:32:52;100774.72;;;26.35;39.29
42385;BME280;28042;43.986;22.860;2022-07-10T08:35:17;100773.69;;;26.69;36.42
42385;BME280;28042;43.986;22.860;2022-07-10T08:37:43;100776.41;;;26.74;33.05
42385;BME280;28042;43.986;22.860;2022-07-10T08:40:09;100782.41;;;26.67;33.15
42385;BME280;28042;43.986;22.860;2022-07-10T08:42:34;100783.44;;;26.71;34.19
42385;BME280;28042;43.986;22.860;2022-07-10T08:45:00;100774.38;;;26.61;35.11
42385;BME280;28042;43.986;22.860;2022-07-10T08:47:25;100786.19;;;26.76;34.16
42385;BME280;28042;43.986;22.860;2022-07-10T08:49:52;100784.75;;;26.93;32.38
42385;BME280;28042;43.986;22.860;2022-07-10T08:52:31;100770.41;;;26.81;33.65
42385;BME280;28042;43.986;22.860;2022-07-10T08:54:58;100772.31;;;26.85;33.21
42385;BME280;28042;43.986;22.860;2022-07-10T08:57:24;100761.25;;;27.13;34.22
42385;BME280;28042;43.986;22.860;2022-07-10T08:59:51;100771.28;;;27.14;32.10
42385;BME280;28042;43.986;22.860;2022-07-10T09:02:16;100767.88;;;27.17;33.12
42385;BME280;28042;43.986;22.860;2022-07-10T09:04:41;100764.13;;;26.89;31.62
42385;BME280;28042;43.986;22.860;2022-07-10T09:07:07;100766.47;;;26.82;32.64
42385;BME280;28042;43.986;22.860;2022-07-10T09:09:37;100767.56;;;26.86;34.26
42385;BME280;28042;43.986;22.860;2022-07-10T09:12:15;100756.66;;;27.03;34.23
42385;BME280;28042;43.986;22.860;2022-07-10T09:14:41;100771.03;;;26.77;32.91
42385;BME280;28042;43.986;22.860;2022-07-10T09:17:06;100755.91;;;26.79;33.17
42385;BME280;28042;43.986;22.860;2022-07-10T09:19:31;100748.75;;;27.05;32.56
42385;BME280;28042;43.986;22.860;2022-07-10T09:22:07;100764.34;;;26.92;32.99
42385;BME280;28042;43.986;22.860;2022-07-10T09:24:39;100758.19;;;26.76;32.25
42385;BME280;28042;43.986;22.860;2022-07-10T09:27:05;100754.81;;;27.12;33.92
42385;BME280;28042;43.986;22.860;2022-07-10T09:29:31;100750.25;;;27.16;33.17
42385;BME280;28042;43.986;22.860;2022-07-10T09:32:00;100753.56;;;27.18;33.17
42385;BME280;28042;43.986;22.860;2022-07-10T09:39:52;100753.16;;;27.11;29.90
42385;BME280;28042;43.986;22.860;2022-07-10T09:42:28;100749.66;;;27.19;30.46
42385;BME280;28042;43.986;22.860;2022-07-10T09:47:37;100753.84;;;27.63;30.97
42385;BME280;28042;43.986;22.860;2022-07-10T09:50:03;100752.38;;;27.52;31.55
42385;BME280;28042;43.986;22.860;2022-07-10T09:52:28;100743.47;;;27.77;32.33
42385;BME280;28042;43.986;22.860;2022-07-10T09:54:54;100745.78;;;27.75;30.58
42385;BME280;28042;43.986;22.860;2022-07-10T09:57:20;100759.06;;;27.83;29.57
42385;BME280;28042;43.986;22.860;2022-07-10T09:59:48;100757.19;;;27.79;30.06
42385;BME280;28042;43.986;22.860;2022-07-10T10:02:15;100739.91;;;27.44;31.21
42385;BME280;28042;43.986;22.860;2022-07-10T10:04:42;100746.66;;;27.29;30.37
42385;BME280;28042;43.986;22.860;2022-07-10T10:07:09;100753.72;;;27.41;31.25
42385;BME280;28042;43.986;22.860;2022-07-10T10:09:41;100745.19;;;26.99;32.30
42385;BME280;28042;43.986;22.860;2022-07-10T10:12:13;100758.31;;;27.04;31.39
42385;BME280;28042;43.986;22.860;2022-07-10T10:14:41;100763.63;;;26.87;32.52
42385;BME280;28042;43.986;22.860;2022-07-10T10:17:06;100762.19;;;26.70;32.51
42385;BME280;28042;43.986;22.860;2022-07-10T10:19:32;100749.09;;;26.85;32.97
42385;BME280;28042;43.986;22.860;2022-07-10T10:22:18;100751.88;;;27.03;33.64
42385;BME280;28042;43.986;22.860;2022-07-10T10:24:43;100760.56;;;27.02;32.53
42385;BME280;28042;43.986;22.860;2022-07-10T10:27:10;100758.50;;;27.08;33.29
42385;BME280;28042;43.986;22.860;2022-07-10T10:29:36;100746.72;;;27.24;33.45
42385;BME280;28042;43.986;22.860;2022-07-10T10:32:02;100749.66;;;27.19;31.23
42385;BME280;28042;43.986;22.860;2022-07-10T10:34:41;100743.41;;;27.36;33.10
42385;BME280;28042;43.986;22.860;2022-07-10T10:37:27;100735.13;;;27.31;31.67
42385;BME280;28042;43.986;22.860;2022-07-10T10:39:53;100735.34;;;27.48;31.24
42385;BME280;28042;43.986;22.860;2022-07-10T10:42:35;100730.19;;;27.69;31.54
42385;BME280;28042;43.986;22.860;2022-07-10T10:50:38;100719.78;;;27.56;31.32
42385;BME280;28042;43.986;22.860;2022-07-10T10:53:04;100723.94;;;27.86;30.86
42385;BME280;28042;43.986;22.860;2022-07-10T10:55:30;100730.38;;;27.86;31.48
42385;BME280;28042;43.986;22.860;2022-07-10T10:58:11;100717.94;;;27.93;31.43
42385;BME280;28042;43.986;22.860;2022-07-10T11:00:36;100719.78;;;27.56;31.26
42385;BME280;28042;43.986;22.860;2022-07-10T11:03:12;100719.59;;;27.66;31.92
42385;BME280;28042;43.986;22.860;2022-07-10T11:05:38;100709.31;;;27.48;31.82
42385;BME280;28042;43.986;22.860;2022-07-10T11:08:06;100715.66;;;27.81;32.26
42385;BME280;28042;43.986;22.860;2022-07-10T11:13:01;100719.53;;;28.21;32.26
42385;BME280;28042;43.986;22.860;2022-07-10T11:15:28;100703.91;;;28.65;30.26
42385;BME280;28042;43.986;22.860;2022-07-10T11:17:55;100709.84;;;28.63;31.78
42385;BME280;28042;43.986;22.860;2022-07-10T11:20:21;100715.13;;;28.87;32.29
42385;BME280;28042;43.986;22.860;2022-07-10T11:22:49;100702.97;;;28.69;31.64
42385;BME280;28042;43.986;22.860;2022-07-10T11:28:07;100705.78;;;28.69;34.27
42385;BME280;28042;43.986;22.860;2022-07-10T11:30:44;100702.41;;;28.59;33.09
42385;BME280;28042;43.986;22.860;2022-07-10T11:33:09;100707.88;;;28.41;33.48
42385;BME280;28042;43.986;22.860;2022-07-10T11:35:35;100716.50;;;27.81;33.28
42385;BME280;28042;43.986;22.860;2022-07-10T11:38:00;100710.88;;;27.81;33.34
42385;BME280;28042;43.986;22.860;2022-07-10T11:40:26;100707.94;;;27.59;33.78
42385;BME280;28042;43.986;22.860;2022-07-10T11:42:55;100721.03;;;27.50;34.75
42385;BME280;28042;43.986;22.860;2022-07-10T11:45:24;100730.56;;;27.49;34.53
42385;BME280;28042;43.986;22.860;2022-07-10T11:47:50;100722.69;;;27.51;34.68
42385;BME280;28042;43.986;22.860;2022-07-10T11:50:15;100723.28;;;27.61;33.69
42385;BME280;28042;43.986;22.860;2022-07-10T11:52:41;100722.38;;;27.39;35.54
42385;BME280;28042;43.986;22.860;2022-07-10T11:55:19;100726.84;;;27.40;36.32
42385;BME280;28042;43.986;22.860;2022-07-10T11:57:45;100728.78;;;26.93;36.68
42385;BME280;28042;43.986;22.860;2022-07-10T12:03:20;100749.16;;;26.80;36.86
42385;BME280;28042;43.986;22.860;2022-07-10T12:05:46;100733.81;;;26.58;37.05
42385;BME280;28042;43.986;22.860;2022-07-10T12:08:12;100750.13;;;26.89;37.26
42385;BME280;28042;43.986;22.860;2022-07-10T12:10:38;100755.06;;;26.78;37.03
42385;BME280;28042;43.986;22.860;2022-07-10T12:13:06;100758.31;;;26.66;37.35
42385;BME280;28042;43.986;22.860;2022-07-10T12:15:33;100739.69;;;26.75;37.08
42385;BME280;28042;43.986;22.860;2022-07-10T12:17:59;100744.25;;;26.71;36.76
42385;BME280;28042;43.986;22.860;2022-07-10T12:20:24;100744.91;;;26.82;37.64
42385;BME280;28042;43.986;22.860;2022-07-10T12:22:50;100744.19;;;26.76;37.91
42385;BME280;28042;43.986;22.860;2022-07-10T12:25:18;100754.84;;;26.74;37.67
42385;BME280;28042;43.986;22.860;2022-07-10T12:27:44;100746.13;;;26.95;39.32
42385;BME280;28042;43.986;22.860;2022-07-10T12:30:09;100756.03;;;27.06;38.92
42385;BME280;28042;43.986;22.860;2022-07-10T12:32:35;100738.88;;;27.54;37.80
42385;BME280;28042;43.986;22.860;2022-07-10T12:35:00;100738.09;;;27.67;37.25
42385;BME280;28042;43.986;22.860;2022-07-10T12:37:25;100741.97;;;27.25;35.95
42385;BME280;28042;43.986;22.860;2022-07-10T12:39:51;100741.75;;;27.21;37.28
42385;BME280;28042;43.986;22.860;2022-07-10T12:44:51;100754.44;;;26.81;37.20
42385;BME280;28042;43.986;22.860;2022-07-10T12:47:17;100760.75;;;26.54;36.76
42385;BME280;28042;43.986;22.860;2022-07-10T12:52:19;100746.88;;;26.82;37.16
42385;BME280;28042;43.986;22.860;2022-07-10T12:54:45;100759.28;;;26.75;36.29
42385;BME280;28042;43.986;22.860;2022-07-10T12:57:10;100758.72;;;26.60;35.47
42385;BME280;28042;43.986;22.860;2022-07-10T12:59:36;100753.72;;;26.57;35.02
42385;BME280;28042;43.986;22.860;2022-07-10T13:02:20;100746.59;;;26.64;36.10
42385;BME280;28042;43.986;22.860;2022-07-10T13:04:53;100757.28;;;26.62;35.98